sensor_id;sensor_type;location;lat;lon;timestamp;pressure;altitude;pressure_sealevel;temperature;humidity
61906;BME280;47863;55.766;37.672;2023-02-16T00:01:41;100819.09;;;-2.79;76.73
61906;BME280;47863;55.766;37.672;2023-02-16T00:04:22;100813.78;;;-2.75;76.77
61906;BME280;47863;55.766;37.672;2023-02-16T00:06:52;100804.25;;;-2.78;76.51
61906;BME280;47863;55.766;37.672;2023-02-16T00:09:19;100814.63;;;-2.75;76.56
61906;BME280;47863;55.766;37.672;2023-02-16T00:11:45;100770.72;;;-2.95;76.74
61906;BME280;47863;55.766;37.672;2023-02-16T00:14:32;100770.03;;;-3.00;76.74
61906;BME280;47863;55.766;37.672;2023-02-16T00:16:59;100798.09;;;-2.77;76.86
61906;BME280;47863;55.766;37.672;2023-02-16T00:19:26;100808.63;;;-2.79;76.81
61906;BME280;47863;55.766;37.672;2023-02-16T00:21:54;100795.06;;;-2.91;76.83
61906;BME280;47863;55.766;37.672;2023-02-16T00:24:21;100804.47;;;-2.84;76.83
61906;BME280;47863;55.766;37.672;2023-02-16T00:26:47;100796.72;;;-2.89;76.65
61906;BME280;47863;55.766;37.672;2023-02-16T00:29:28;100788.91;;;-2.90;76.95
61906;BME280;47863;55.766;37.672;2023-02-16T00:31:56;100770.84;;;-2.98;77.02
61906;BME280;47863;55.766;37.672;2023-02-16T00:34:36;100804.28;;;-2.80;77.01
61906;BME280;47863;55.766;37.672;2023-02-16T00:37:05;100799.94;;;-2.81;77.20
61906;BME280;47863;55.766;37.672;2023-02-16T00:39:32;100797.50;;;-2.85;77.31
61906;BME280;47863;55.766;37.672;2023-02-16T00:42:00;100804.56;;;-2.87;77.23
61906;BME280;47863;55.766;37.672;2023-02-16T00:44:38;100777.00;;;-3.01;77.51
61906;BME280;47863;55.766;37.672;2023-02-16T00:49:56;100783.19;;;-3.02;77.21
61906;BME280;47863;55.766;37.672;2023-02-16T00:54:55;100743.88;;;-3.30;77.63
61906;BME280;47863;55.766;37.672;2023-02-16T00:57:21;100779.03;;;-3.09;77.89
61906;BME280;47863;55.766;37.672;2023-02-16T00:59:47;100751.63;;;-3.25;77.93
61906;BME280;47863;55.766;37.672;2023-02-16T01:02:15;100788.25;;;-2.97;77.91
61906;BME280;47863;55.766;37.672;2023-02-16T01:04:40;100757.44;;;-3.15;77.95
61906;BME280;47863;55.766;37.672;2023-02-16T01:07:11;100784.78;;;-2.97;78.08
61906;BME280;47863;55.766;37.672;2023-02-16T01:09:55;100797.13;;;-3.01;77.76
61906;BME280;47863;55.766;37.672;2023-02-16T01:12:39;100791.97;;;-3.04;77.58
61906;BME280;47863;55.766;37.672;2023-02-16T01:15:09;100791.25;;;-3.08;77.66
61906;BME280;47863;55.766;37.672;2023-02-16T01:17:37;100794.13;;;-3.15;77.80
61906;BME280;47863;55.766;37.672;2023-02-16T01:20:02;100763.31;;;-3.35;77.98
61906;BME280;47863;55.766;37.672;2023-02-16T01:22:29;100790.56;;;-3.14;77.89
61906;BME280;47863;55.766;37.672;2023-02-16T01:24:57;100806.34;;;-3.16;78.00
61906;BME280;47863;55.766;37.672;2023-02-16T01:27:23;100787.47;;;-3.26;78.01
61906;BME280;47863;55.766;37.672;2023-02-16T01:29:48;100789.19;;;-3.26;78.01
61906;BME280;47863;55.766;37.672;2023-02-16T01:32:17;100801.41;;;-3.25;78.00
61906;BME280;47863;55.766;37.672;2023-02-16T01:34:42;100773.03;;;-3.39;78.07
61906;BME280;47863;55.766;37.672;2023-02-16T01:37:13;100791.94;;;-3.29;78.48
61906;BME280;47863;55.766;37.672;2023-02-16T01:39:39;100782.47;;;-3.33;78.27
61906;BME280;47863;55.766;37.672;2023-02-16T01:42:15;100789.28;;;-3.28;78.18
61906;BME280;47863;55.766;37.672;2023-02-16T01:44:57;100808.44;;;-3.26;78.36
61906;BME280;47863;55.766;37.672;2023-02-16T01:47:48;100806.66;;;-3.25;78.25
61906;BME280;47863;55.766;37.672;2023-02-16T01:50:21;100804.00;;;-3.24;78.21
61906;BME280;47863;55.766;37.672;2023-02-16T01:52:53;100772.22;;;-3.41;78.53
61906;BME280;47863;55.766;37.672;2023-02-16T01:55:23;100802.03;;;-3.17;78.24
61906;BME280;47863;55.766;37.672;2023-02-16T01:58:15;100798.44;;;-3.14;78.80
61906;BME280;47863;55.766;37.672;2023-02-16T02:03:26;100773.47;;;-3.26;78.79
61906;BME280;47863;55.766;37.672;2023-02-16T02:06:11;100814.75;;;-3.06;78.29
61906;BME280;47863;55.766;37.672;2023-02-16T02:08:42;100800.03;;;-3.10;78.78
61906;BME280;47863;55.766;37.672;2023-02-16T02:13:43;100820.88;;;-3.06;78.54
61906;BME280;47863;55.766;37.672;2023-02-16T02:16:30;100810.34;;;-3.04;78.69
61906;BME280;47863;55.766;37.672;2023-02-16T02:18:56;100803.56;;;-3.10;78.65
61906;BME280;47863;55.766;37.672;2023-02-16T02:28:08;100813.72;;;-3.01;78.91
61906;BME280;47863;55.766;37.672;2023-02-16T02:30:52;100816.38;;;-3.02;78.82
61906;BME280;47863;55.766;37.672;2023-02-16T02:39:00;100813.97;;;-3.08;78.98
61906;BME280;47863;55.766;37.672;2023-02-16T02:41:46;100808.78;;;-3.10;79.03
61906;BME280;47863;55.766;37.672;2023-02-16T02:44:33;100787.34;;;-3.23;79.37
61906;BME280;47863;55.766;37.672;2023-02-16T02:47:02;100790.94;;;-3.25;79.30
61906;BME280;47863;55.766;37.672;2023-02-16T02:49:27;100766.88;;;-3.38;79.13
61906;BME280;47863;55.766;37.672;2023-02-16T02:51:53;100790.31;;;-3.33;79.34
61906;BME280;47863;55.766;37.672;2023-02-16T02:54:25;100780.94;;;-3.41;79.29
61906;BME280;47863;55.766;37.672;2023-02-16T02:57:17;100771.66;;;-3.51;79.50
61906;BME280;47863;55.766;37.672;2023-02-16T03:05:52;100788.72;;;-3.37;79.59
61906;BME280;47863;55.766;37.672;2023-02-16T03:08:22;100800.69;;;-3.30;79.82
61906;BME280;47863;55.766;37.672;2023-02-16T03:11:03;100797.97;;;-3.27;79.49
61906;BME280;47863;55.766;37.672;2023-02-16T03:13:54;100780.78;;;-3.36;79.21
61906;BME280;47863;55.766;37.672;2023-02-16T03:16:38;100798.03;;;-3.29;79.69
61906;BME280;47863;55.766;37.672;2023-02-16T03:19:07;100803.06;;;-3.23;79.72
61906;BME280;47863;55.766;37.672;2023-02-16T03:21:54;100806.41;;;-3.17;79.65
61906;BME280;47863;55.766;37.672;2023-02-16T03:24:40;100799.34;;;-3.15;79.73
61906;BME280;47863;55.766;37.672;2023-02-16T03:27:27;100794.19;;;-3.19;79.67
61906;BME280;47863;55.766;37.672;2023-02-16T03:30:13;100800.25;;;-3.16;79.69
61906;BME280;47863;55.766;37.672;2023-02-16T03:32:40;100806.25;;;-3.13;79.79
61906;BME280;47863;55.766;37.672;2023-02-16T03:35:06;100807.91;;;-3.10;79.92
61906;BME280;47863;55.766;37.672;2023-02-16T03:37:33;100804.44;;;-3.11;79.74
61906;BME280;47863;55.766;37.672;2023-02-16T03:39:59;100801.78;;;-3.09;79.68
61906;BME280;47863;55.766;37.672;2023-02-16T03:42:50;100800.94;;;-3.10;79.34
61906;BME280;47863;55.766;37.672;2023-02-16T03:45:16;100797.59;;;-3.15;79.67
61906;BME280;47863;55.766;37.672;2023-02-16T03:47:42;100809.63;;;-3.09;79.61
61906;BME280;47863;55.766;37.672;2023-02-16T03:50:08;100804.44;;;-3.11;79.46
61906;BME280;47863;55.766;37.672;2023-02-16T03:52:33;100801.84;;;-3.12;79.81
61906;BME280;47863;55.766;37.672;2023-02-16T03:54:59;100794.13;;;-3.15;79.92
61906;BME280;47863;55.766;37.672;2023-02-16T03:57:25;100798.56;;;-3.17;79.75
61906;BME280;47863;55.766;37.672;2023-02-16T03:59:50;100782.34;;;-3.30;79.91
61906;BME280;47863;55.766;37.672;2023-02-16T04:02:17;100788.31;;;-3.25;80.20
61906;BME280;47863;55.766;37.672;2023-02-16T04:04:43;100785.72;;;-3.27;79.79
61906;BME280;47863;55.766;37.672;2023-02-16T04:07:08;100796.13;;;-3.24;79.83
61906;BME280;47863;55.766;37.672;2023-02-16T04:09:34;100787.59;;;-3.30;79.58
61906;BME280;47863;55.766;37.672;2023-02-16T04:11:59;100783.34;;;-3.34;79.76
61906;BME280;47863;55.766;37.672;2023-02-16T04:14:44;100759.34;;;-3.49;79.86
61906;BME280;47863;55.766;37.672;2023-02-16T04:17:09;100799.84;;;-3.31;79.62
61906;BME280;47863;55.766;37.672;2023-02-16T04:19:35;100764.47;;;-3.46;79.71
61906;BME280;47863;55.766;37.672;2023-02-16T04:22:00;100794.75;;;-3.35;79.84
61906;BME280;47863;55.766;37.672;2023-02-16T04:24:27;100807.03;;;-3.37;79.50
61906;BME280;47863;55.766;37.672;2023-02-16T04:26:53;100800.22;;;-3.43;79.87
61906;BME280;47863;55.766;37.672;2023-02-16T04:29:19;100791.56;;;-3.45;79.44
61906;BME280;47863;55.766;37.672;2023-02-16T04:31:44;100775.03;;;-3.47;79.87
61906;BME280;47863;55.766;37.672;2023-02-16T04:34:10;100781.00;;;-3.44;79.95
61906;BME280;47863;55.766;37.672;2023-02-16T04:36:35;100734.69;;;-3.70;79.65
61906;BME280;47863;55.766;37.672;2023-02-16T04:39:01;100782.78;;;-3.44;79.59
61906;BME280;47863;55.766;37.672;2023-02-16T04:41:26;100790.63;;;-3.44;79.86
61906;BME280;47863;55.766;37.672;2023-02-16T04:43:52;100768.34;;;-3.58;79.46
61906;BME280;47863;55.766;37.672;2023-02-16T04:46:18;100751.19;;;-3.68;79.65
61906;BME280;47863;55.766;37.672;2023-02-16T04:48:44;100778.53;;;-3.48;79.93
61906;BME280;47863;55.766;37.672;2023-02-16T04:51:10;100766.50;;;-3.54;79.78
61906;BME280;47863;55.766;37.672;2023-02-16T04:53:35;100742.66;;;-3.73;79.80
61906;BME280;47863;55.766;37.672;2023-02-16T04:56:01;100798.38;;;-3.40;79.64
61906;BME280;47863;55.766;37.672;2023-02-16T04:58:27;100803.50;;;-3.36;79.88
61906;BME280;47863;55.766;37.672;2023-02-16T05:00:52;100793.03;;;-3.36;79.83
61906;BME280;47863;55.766;37.672;2023-02-16T05:03:18;100755.16;;;-3.54;79.88
61906;BME280;47863;55.766;37.672;2023-02-16T05:05:43;100764.78;;;-3.55;79.50
61906;BME280;47863;55.766;37.672;2023-02-16T05:08:09;100803.53;;;-3.38;79.70
61906;BME280;47863;55.766;37.672;2023-02-16T05:10:34;100796.50;;;-3.36;79.95
61906;BME280;47863;55.766;37.672;2023-02-16T05:13:00;100776.72;;;-3.46;79.63
61906;BME280;47863;55.766;37.672;2023-02-16T05:15:44;100796.50;;;-3.36;79.43
61906;BME280;47863;55.766;37.672;2023-02-16T05:18:10;100773.41;;;-3.51;79.66
61906;BME280;47863;55.766;37.672;2023-02-16T05:20:35;100783.69;;;-3.45;79.64
61906;BME280;47863;55.766;37.672;2023-02-16T05:23:20;100786.16;;;-3.41;79.61
61906;BME280;47863;55.766;37.672;2023-02-16T05:25:45;100804.47;;;-3.39;79.62
61906;BME280;47863;55.766;37.672;2023-02-16T05:28:11;100759.16;;;-3.71;79.33
61906;BME280;47863;55.766;37.672;2023-02-16T05:30:37;100798.66;;;-3.49;79.53
61906;BME280;47863;55.766;37.672;2023-02-16T05:33:02;100762.81;;;-3.76;79.39
61906;BME280;47863;55.766;37.672;2023-02-16T05:35:28;100778.31;;;-3.69;79.17
61906;BME280;47863;55.766;37.672;2023-02-16T05:37:53;100804.78;;;-3.50;79.43
61906;BME280;47863;55.766;37.672;2023-02-16T05:40:19;100806.41;;;-3.46;79.72
61906;BME280;47863;55.766;37.672;2023-02-16T05:42:44;100805.50;;;-3.45;79.25
61906;BME280;47863;55.766;37.672;2023-02-16T05:45:10;100766.00;;;-3.65;79.52
61906;BME280;47863;55.766;37.672;2023-02-16T05:47:35;100802.78;;;-3.42;79.31
61906;BME280;47863;55.766;37.672;2023-02-16T05:50:02;100803.72;;;-3.44;79.37
61906;BME280;47863;55.766;37.672;2023-02-16T05:52:28;100800.56;;;-3.55;79.04
61906;BME280;47863;55.766;37.672;2023-02-16T05:54:53;100797.25;;;-3.61;79.04
61906;BME280;47863;55.766;37.672;2023-02-16T05:57:19;100803.31;;;-3.59;79.22
61906;BME280;47863;55.766;37.672;2023-02-16T05:59:44;100811.91;;;-3.53;79.57
61906;BME280;47863;55.766;37.672;2023-02-16T06:02:10;100809.28;;;-3.53;79.08
61906;BME280;47863;55.766;37.672;2023-02-16T06:04:36;100781.63;;;-3.64;79.10
61906;BME280;47863;55.766;37.672;2023-02-16T06:07:01;100796.91;;;-3.50;78.94
61906;BME280;47863;55.766;37.672;2023-02-16T06:09:27;100802.69;;;-3.39;78.94
61906;BME280;47863;55.766;37.672;2023-02-16T06:11:52;100801.53;;;-3.30;79.04
61906;BME280;47863;55.766;37.672;2023-02-16T06:14:19;100775.41;;;-3.31;79.07
61906;BME280;47863;55.766;37.672;2023-02-16T06:16:49;100777.63;;;-3.19;78.98
61906;BME280;47863;55.766;37.672;2023-02-16T06:19:17;100785.13;;;-3.08;79.16
61906;BME280;47863;55.766;37.672;2023-02-16T06:21:43;100799.41;;;-2.90;79.01
61906;BME280;47863;55.766;37.672;2023-02-16T06:24:10;100801.75;;;-2.83;78.79
61906;BME280;47863;55.766;37.672;2023-02-16T06:26:36;100782.59;;;-2.85;78.94
61906;BME280;47863;55.766;37.672;2023-02-16T06:29:02;100786.56;;;-2.73;78.63
61906;BME280;47863;55.766;37.672;2023-02-16T06:31:28;100790.13;;;-2.74;78.62
61906;BME280;47863;55.766;37.672;2023-02-16T06:33:54;100760.94;;;-2.90;78.36
61906;BME280;47863;55.766;37.672;2023-02-16T06:36:21;100782.75;;;-2.63;78.66
61906;BME280;47863;55.766;37.672;2023-02-16T06:38:47;100792.88;;;-2.52;78.87
61906;BME280;47863;55.766;37.672;2023-02-16T06:41:13;100796.13;;;-2.45;78.81
61906;BME280;47863;55.766;37.672;2023-02-16T06:43:57;100787.13;;;-2.38;78.43
61906;BME280;47863;55.766;37.672;2023-02-16T06:46:23;100746.84;;;-2.61;78.32
61906;BME280;47863;55.766;37.672;2023-02-16T06:48:48;100781.72;;;-2.33;78.24
61906;BME280;47863;55.766;37.672;2023-02-16T06:51:16;100784.06;;;-2.26;78.15
61906;BME280;47863;55.766;37.672;2023-02-16T06:53:42;100786.59;;;-2.23;77.49
61906;BME280;47863;55.766;37.672;2023-02-16T06:56:07;100786.69;;;-2.26;77.88
61906;BME280;47863;55.766;37.672;2023-02-16T06:58:33;100793.44;;;-2.18;77.79
61906;BME280;47863;55.766;37.672;2023-02-16T07:00:58;100790.78;;;-2.17;77.79
61906;BME280;47863;55.766;37.672;2023-02-16T07:03:24;100786.19;;;-2.12;77.90
61906;BME280;47863;55.766;37.672;2023-02-16T07:05:49;100787.50;;;-2.00;78.20
61906;BME280;47863;55.766;37.672;2023-02-16T07:08:15;100783.56;;;-1.88;78.08
61906;BME280;47863;55.766;37.672;2023-02-16T07:10:42;100721.31;;;-2.08;77.96
61906;BME280;47863;55.766;37.672;2023-02-16T07:13:08;100787.66;;;-1.57;77.95
61906;BME280;47863;55.766;37.672;2023-02-16T07:15:34;100779.31;;;-1.45;77.81
61906;BME280;47863;55.766;37.672;2023-02-16T07:17:59;100773.06;;;-1.43;77.43
61906;BME280;47863;55.766;37.672;2023-02-16T07:20:25;100770.97;;;-1.34;76.83
61906;BME280;47863;55.766;37.672;2023-02-16T07:22:51;100773.44;;;-1.30;76.95
61906;BME280;47863;55.766;37.672;2023-02-16T07:25:17;100768.00;;;-1.25;77.14
61906;BME280;47863;55.766;37.672;2023-02-16T07:27:43;100766.88;;;-1.20;77.15
61906;BME280;47863;55.766;37.672;2023-02-16T07:30:09;100778.41;;;-1.22;77.00
61906;BME280;47863;55.766;37.672;2023-02-16T07:32:35;100742.47;;;-1.44;77.13
61906;BME280;47863;55.766;37.672;2023-02-16T07:35:02;100777.63;;;-1.04;77.48
61906;BME280;47863;55.766;37.672;2023-02-16T07:37:29;100768.75;;;-1.01;76.86
61906;BME280;47863;55.766;37.672;2023-02-16T07:39:55;100786.78;;;-0.92;76.26
61906;BME280;47863;55.766;37.672;2023-02-16T07:42:20;100772.41;;;-0.83;76.55
61906;BME280;47863;55.766;37.672;2023-02-16T07:44:46;100780.06;;;-0.77;76.84
61906;BME280;47863;55.766;37.672;2023-02-16T07:47:12;100771.13;;;-0.73;76.77
61906;BME280;47863;55.766;37.672;2023-02-16T07:49:39;100761.50;;;-0.74;77.26
61906;BME280;47863;55.766;37.672;2023-02-16T07:52:05;100769.78;;;-0.63;76.95
61906;BME280;47863;55.766;37.672;2023-02-16T07:54:31;100771.94;;;-0.52;76.79
61906;BME280;47863;55.766;37.672;2023-02-16T07:56:57;100778.00;;;-0.50;76.63
61906;BME280;47863;55.766;37.672;2023-02-16T07:59:23;100775.19;;;-0.45;76.80
61906;BME280;47863;55.766;37.672;2023-02-16T08:01:48;100768.09;;;-0.43;75.80
61906;BME280;47863;55.766;37.672;2023-02-16T08:04:14;100767.13;;;-0.42;75.95
61906;BME280;47863;55.766;37.672;2023-02-16T08:06:39;100763.44;;;-0.38;76.03
61906;BME280;47863;55.766;37.672;2023-02-16T08:09:05;100768.44;;;-0.32;76.08
61906;BME280;47863;55.766;37.672;2023-02-16T08:11:31;100762.13;;;-0.28;76.62
61906;BME280;47863;55.766;37.672;2023-02-16T08:13:59;100753.59;;;-0.33;76.02
61906;BME280;47863;55.766;37.672;2023-02-16T08:16:27;100736.75;;;-0.49;75.80
61906;BME280;47863;55.766;37.672;2023-02-16T08:18:54;100766.13;;;-0.40;76.17
61906;BME280;47863;55.766;37.672;2023-02-16T08:21:22;100757.56;;;-0.43;76.23
61906;BME280;47863;55.766;37.672;2023-02-16T08:23:56;100770.56;;;-0.40;76.30
61906;BME280;47863;55.766;37.672;2023-02-16T08:26:23;100773.66;;;-0.51;76.28
61906;BME280;47863;55.766;37.672;2023-02-16T08:28:49;100759.31;;;-0.64;76.30
61906;BME280;47863;55.766;37.672;2023-02-16T08:31:21;100768.75;;;-0.58;76.54
61906;BME280;47863;55.766;37.672;2023-02-16T08:33:48;100776.75;;;-0.62;76.22
61906;BME280;47863;55.766;37.672;2023-02-16T08:36:20;100775.31;;;-0.69;76.55
61906;BME280;47863;55.766;37.672;2023-02-16T08:38:46;100777.16;;;-0.71;76.66
61906;BME280;47863;55.766;37.672;2023-02-16T08:41:15;100763.22;;;-0.73;76.73
61906;BME280;47863;55.766;37.672;2023-02-16T08:43:41;100769.00;;;-0.65;76.77
61906;BME280;47863;55.766;37.672;2023-02-16T08:46:07;100753.78;;;-0.58;76.97
61906;BME280;47863;55.766;37.672;2023-02-16T08:48:33;100715.44;;;-0.64;76.59
61906;BME280;47863;55.766;37.672;2023-02-16T08:51:00;100754.53;;;-0.15;76.67
61906;BME280;47863;55.766;37.672;2023-02-16T08:53:26;100761.75;;;0.19;76.57
61906;BME280;47863;55.766;37.672;2023-02-16T08:55:57;100748.50;;;0.40;75.99
61906;BME280;47863;55.766;37.672;2023-02-16T08:58:24;100756.00;;;0.67;75.70
61906;BME280;47863;55.766;37.672;2023-02-16T09:00:50;100752.22;;;0.72;75.68
61906;BME280;47863;55.766;37.672;2023-02-16T09:03:16;100750.22;;;0.77;75.82
61906;BME280;47863;55.766;37.672;2023-02-16T09:05:45;100757.19;;;0.78;75.55
61906;BME280;47863;55.766;37.672;2023-02-16T09:08:11;100756.59;;;0.73;75.58
61906;BME280;47863;55.766;37.672;2023-02-16T09:10:38;100759.22;;;0.73;76.11
61906;BME280;47863;55.766;37.672;2023-02-16T09:13:04;100743.75;;;0.66;75.65
61906;BME280;47863;55.766;37.672;2023-02-16T09:15:33;100721.63;;;0.51;75.53
61906;BME280;47863;55.766;37.672;2023-02-16T09:17:58;100753.53;;;0.64;75.96
61906;BME280;47863;55.766;37.672;2023-02-16T09:20:24;100761.63;;;0.59;76.04
61906;BME280;47863;55.766;37.672;2023-02-16T09:22:51;100710.59;;;0.24;75.22
61906;BME280;47863;55.766;37.672;2023-02-16T09:25:18;100721.44;;;0.17;74.41
61906;BME280;47863;55.766;37.672;2023-02-16T09:27:43;100744.00;;;0.23;75.44
61906;BME280;47863;55.766;37.672;2023-02-16T09:30:10;100740.16;;;0.11;75.62
61906;BME280;47863;55.766;37.672;2023-02-16T09:32:36;100713.91;;;-0.09;75.44
61906;BME280;47863;55.766;37.672;2023-02-16T09:35:02;100721.59;;;-0.05;75.73
61906;BME280;47863;55.766;37.672;2023-02-16T09:37:29;100746.72;;;0.03;75.95
61906;BME280;47863;55.766;37.672;2023-02-16T09:39:55;100743.44;;;-0.03;75.65
61906;BME280;47863;55.766;37.672;2023-02-16T09:42:29;100749.00;;;-0.09;75.82
61906;BME280;47863;55.766;37.672;2023-02-16T09:45:18;100743.00;;;-0.12;75.49
61906;BME280;47863;55.766;37.672;2023-02-16T09:47:46;100731.75;;;-0.16;76.29
61906;BME280;47863;55.766;37.672;2023-02-16T09:50:29;100705.19;;;-0.30;75.32
61906;BME280;47863;55.766;37.672;2023-02-16T09:53:08;100739.00;;;-0.02;75.84
61906;BME280;47863;55.766;37.672;2023-02-16T09:58:54;100735.81;;;-0.09;74.31
61906;BME280;47863;55.766;37.672;2023-02-16T10:06:50;100744.16;;;0.01;74.74
61906;BME280;47863;55.766;37.672;2023-02-16T10:09:19;100694.22;;;-0.40;74.66
61906;BME280;47863;55.766;37.672;2023-02-16T10:11:52;100730.63;;;-0.29;75.29
61906;BME280;47863;55.766;37.672;2023-02-16T10:14:39;100741.66;;;-0.42;75.29
61906;BME280;47863;55.766;37.672;2023-02-16T10:17:31;100732.41;;;-0.50;75.21
61906;BME280;47863;55.766;37.672;2023-02-16T10:20:20;100738.84;;;-0.57;73.22
61906;BME280;47863;55.766;37.672;2023-02-16T10:22:53;100699.72;;;-0.86;74.71
61906;BME280;47863;55.766;37.672;2023-02-16T10:28:04;100732.28;;;-0.68;74.31
61906;BME280;47863;55.766;37.672;2023-02-16T10:30:36;100726.22;;;-0.70;75.77
61906;BME280;47863;55.766;37.672;2023-02-16T10:33:39;100720.91;;;-0.68;74.60
61906;BME280;47863;55.766;37.672;2023-02-16T10:36:13;100729.47;;;-0.63;72.44
61906;BME280;47863;55.766;37.672;2023-02-16T10:38:53;100730.94;;;-0.57;74.90
61906;BME280;47863;55.766;37.672;2023-02-16T10:41:35;100686.59;;;-0.86;73.32
61906;BME280;47863;55.766;37.672;2023-02-16T10:44:16;100704.53;;;-0.75;74.60
61906;BME280;47863;55.766;37.672;2023-02-16T10:46:45;100718.19;;;-0.46;74.41
61906;BME280;47863;55.766;37.672;2023-02-16T10:49:13;100721.00;;;-0.30;73.52
61906;BME280;47863;55.766;37.672;2023-02-16T10:51:44;100711.63;;;-0.17;73.79
61906;BME280;47863;55.766;37.672;2023-02-16T10:54:17;100702.31;;;-0.05;74.28
61906;BME280;47863;55.766;37.672;2023-02-16T10:59:23;100721.78;;;0.65;73.36
61906;BME280;47863;55.766;37.672;2023-02-16T11:01:54;100722.16;;;0.94;73.46
61906;BME280;47863;55.766;37.672;2023-02-16T11:04:40;100716.56;;;1.17;72.73
61906;BME280;47863;55.766;37.672;2023-02-16T11:07:10;100704.66;;;1.44;71.50
61906;BME280;47863;55.766;37.672;2023-02-16T11:09:38;100708.75;;;1.49;71.58
61906;BME280;47863;55.766;37.672;2023-02-16T11:12:39;100711.88;;;1.40;70.60
61906;BME280;47863;55.766;37.672;2023-02-16T11:18:17;100713.41;;;0.93;72.26
61906;BME280;47863;55.766;37.672;2023-02-16T11:26:01;100707.31;;;0.37;72.10
61906;BME280;47863;55.766;37.672;2023-02-16T11:28:41;100710.41;;;0.28;71.35
61906;BME280;47863;55.766;37.672;2023-02-16T11:34:25;100703.28;;;0.11;70.99
61906;BME280;47863;55.766;37.672;2023-02-16T11:36:48;100691.59;;;-0.02;72.80
61906;BME280;47863;55.766;37.672;2023-02-16T11:39:21;100692.91;;;-0.11;73.29
61906;BME280;47863;55.766;37.672;2023-02-16T11:41:57;100681.09;;;-0.21;71.79
61906;BME280;47863;55.766;37.672;2023-02-16T11:44:28;100696.88;;;-0.21;72.81
61906;BME280;47863;55.766;37.672;2023-02-16T11:46:56;100709.78;;;-0.15;73.29
61906;BME280;47863;55.766;37.672;2023-02-16T11:51:51;100703.41;;;-0.30;72.94
61906;BME280;47863;55.766;37.672;2023-02-16T11:54:17;100706.53;;;-0.41;72.77
61906;BME280;47863;55.766;37.672;2023-02-16T11:56:43;100688.78;;;-0.56;73.17
61906;BME280;47863;55.766;37.672;2023-02-16T11:59:36;100701.22;;;-0.60;71.76
61906;BME280;47863;55.766;37.672;2023-02-16T12:02:16;100701.66;;;-0.69;73.11
61906;BME280;47863;55.766;37.672;2023-02-16T12:05:18;100695.88;;;-0.77;72.29
61906;BME280;47863;55.766;37.672;2023-02-16T12:08:09;100696.09;;;-0.83;72.29
61906;BME280;47863;55.766;37.672;2023-02-16T12:22:02;100696.84;;;-1.00;72.06
61906;BME280;47863;55.766;37.672;2023-02-16T12:25:06;100702.69;;;-0.93;72.44
61906;BME280;47863;55.766;37.672;2023-02-16T12:32:55;100701.38;;;-1.04;73.06
61906;BME280;47863;55.766;37.672;2023-02-16T12:43:52;100707.31;;;-0.98;72.05
61906;BME280;47863;55.766;37.672;2023-02-16T12:46:31;100710.63;;;-0.95;71.80
61906;BME280;47863;55.766;37.672;2023-02-16T12:54:50;100689.53;;;-1.14;72.93
61906;BME280;47863;55.766;37.672;2023-02-16T12:57:23;100714.88;;;-0.91;73.00
61906;BME280;47863;55.766;37.672;2023-02-16T12:59:57;100694.84;;;-0.95;72.78
61906;BME280;47863;55.766;37.672;2023-02-16T13:02:40;100699.22;;;-0.94;72.70
61906;BME280;47863;55.766;37.672;2023-02-16T13:05:17;100713.69;;;-0.84;71.28
61906;BME280;47863;55.766;37.672;2023-02-16T13:07:48;100709.88;;;-0.76;71.71
61906;BME280;47863;55.766;37.672;2023-02-16T13:10:50;100710.59;;;-0.73;69.78
61906;BME280;47863;55.766;37.672;2023-02-16T13:13:22;100703.84;;;-0.60;71.35
61906;BME280;47863;55.766;37.672;2023-02-16T13:16:01;100645.16;;;-0.41;71.20
61906;BME280;47863;55.766;37.672;2023-02-16T13:18:34;100708.75;;;0.45;70.29
61906;BME280;47863;55.766;37.672;2023-02-16T13:21:13;100705.09;;;0.47;69.75
61906;BME280;47863;55.766;37.672;2023-02-16T13:23:53;100705.06;;;0.30;70.10
61906;BME280;47863;55.766;37.672;2023-02-16T13:26:55;100710.03;;;-0.02;70.50
61906;BME280;47863;55.766;37.672;2023-02-16T13:29:55;100711.69;;;-0.37;66.84
61906;BME280;47863;55.766;37.672;2023-02-16T13:46:26;100693.06;;;-1.35;71.39
61906;BME280;47863;55.766;37.672;2023-02-16T13:48:55;100692.78;;;-1.50;71.87
61906;BME280;47863;55.766;37.672;2023-02-16T13:51:23;100685.00;;;-1.53;71.66
61906;BME280;47863;55.766;37.672;2023-02-16T13:53:57;100671.69;;;-1.70;71.23
61906;BME280;47863;55.766;37.672;2023-02-16T13:58:52;100692.03;;;-1.75;71.45
61906;BME280;47863;55.766;37.672;2023-02-16T14:01:38;100706.31;;;-1.83;71.35
61906;BME280;47863;55.766;37.672;2023-02-16T14:22:52;100708.88;;;-2.27;71.68
61906;BME280;47863;55.766;37.672;2023-02-16T14:27:48;100712.34;;;-2.26;72.09
61906;BME280;47863;55.766;37.672;2023-02-16T14:30:34;100687.69;;;-2.46;71.46
61906;BME280;47863;55.766;37.672;2023-02-16T14:35:43;100705.84;;;-2.40;71.90
61906;BME280;47863;55.766;37.672;2023-02-16T14:38:20;100716.38;;;-2.41;71.63
61906;BME280;47863;55.766;37.672;2023-02-16T14:40:59;100706.19;;;-2.49;71.96
61906;BME280;47863;55.766;37.672;2023-02-16T14:43:26;100717.63;;;-2.51;72.35
61906;BME280;47863;55.766;37.672;2023-02-16T14:51:33;100673.00;;;-2.75;71.64
61906;BME280;47863;55.766;37.672;2023-02-16T14:57:22;100717.41;;;-2.45;72.54
61906;BME280;47863;55.766;37.672;2023-02-16T15:00:03;100712.16;;;-2.45;72.28
61906;BME280;47863;55.766;37.672;2023-02-16T15:02:38;100708.63;;;-2.44;72.64
61906;BME280;47863;55.766;37.672;2023-02-16T15:05:20;100716.50;;;-2.44;72.58
61906;BME280;47863;55.766;37.672;2023-02-16T15:07:48;100714.69;;;-2.42;72.72
61906;BME280;47863;55.766;37.672;2023-02-16T15:10:25;100691.63;;;-2.57;72.35
61906;BME280;47863;55.766;37.672;2023-02-16T15:12:54;100687.97;;;-2.53;72.55
61906;BME280;47863;55.766;37.672;2023-02-16T15:15:25;100719.22;;;-2.47;72.93
61906;BME280;47863;55.766;37.672;2023-02-16T15:17:53;100692.06;;;-2.70;72.78